ěÝzenÝ letovÚho provozu ╚eskÚ republiky
Letiste: LKTB Aktualizace: 30.05.2020 01:30:19  UTC
 METAR LKTB 30.05. 01:30 ...
METAR LKTB 300130Z 34007KT CAVOK 11/03 Q1021 NOSIG RMK REG QNH 1018=
 TAF LKTB 29.05. 23:00 ...
TAF LKTB 292300Z 3000/3106 34008KT CAVOK      TEMPO 3009/3018 03010G20KT 9999 -SHRA FEW030TCU BKN040=